Time;durP1;ratioP1;P1;durP2;ratioP2;P2;SDS_P1;SDS_P2;PMS_P1;PMS_P2;Temp;Humidity;BMP_temperature;BMP_pressure;BME280_temperature;BME280_humidity;BME280_pressure;Samples;Min_cycle;Max_cycle;Signal;HPM_P1;HPM_P2
2021/12/26 00:01:18;;;;;;;12.15;5.20;;;;;;;;;;6290320;28;20122;-81
2021/12/26 00:04:20;;;;;;;19.58;8.70;;;;;;;;;;6316832;28;20052;-80
2021/12/26 00:07:22;;;;;;;12.93;5.55;;;;;;;;;;6298325;28;20103;-82
2021/12/26 00:10:26;;;;;;;9.88;4.80;;;;;;;;;;6314871;28;20039;-82
2021/12/26 00:13:27;;;;;;;11.48;5.40;;;;;;;;;;6279745;28;20041;-81
2021/12/26 00:16:29;;;;;;;9.70;4.95;;;;;;;;;;6288454;28;20061;-81
2021/12/26 00:19:32;;;;;;;10.93;5.25;;;;;;;;;;6290118;28;20406;-81
2021/12/26 00:22:34;;;;;;;9.07;4.15;;;;;;;;;;6296586;28;20040;-81
2021/12/26 00:25:38;;;;;;;8.13;4.68;;;;;;;;;;6296372;28;20048;-81
2021/12/26 00:28:39;;;;;;;;;;;;;;;;;;6269611;28;20047;-81
2021/12/26 00:31:41;;;;;;;8.05;4.00;;;;;;;;;;6289936;28;19942;-79
2021/12/26 00:34:44;;;;;;;9.27;4.93;;;;;;;;;;6292961;28;20162;-82
2021/12/26 00:37:46;;;;;;;;;;;;;;;;;;6268732;28;20064;-81
2021/12/26 00:40:48;;;;;;;7.40;3.85;;;;;;;;;;6292799;28;19928;-81
2021/12/26 00:43:52;;;;;;;7.70;3.97;;;;;;;;;;6274062;28;20047;-81
2021/12/26 00:46:54;;;;;;;9.93;4.20;;;;;;;;;;6309305;28;20494;-82
2021/12/26 00:49:57;;;;;;;8.55;3.83;;;;;;;;;;6287908;28;20083;-82
2021/12/26 00:52:58;;;;;;;10.07;4.37;;;;;;;;;;6271498;28;20051;-81
2021/12/26 00:56:00;;;;;;;7.88;3.97;;;;;;;;;;6300760;28;20158;-82
2021/12/26 00:59:02;;;;;;;8.55;3.95;;;;;;;;;;6272014;28;20051;-82
2021/12/26 01:02:07;;;;;;;8.10;4.10;;;;;;;;;;6247888;28;20107;-82
2021/12/26 01:05:10;;;;;;;10.10;4.55;;;;;;;;;;6293597;28;20051;-82
2021/12/26 01:08:14;;;;;;;7.30;4.03;;;;;;;;;;6295303;28;20078;-81
2021/12/26 01:11:39;;;;;;;7.10;4.20;;;;;;;;;;6277287;28;20086;-82
2021/12/26 01:14:53;;;;;;;6.90;3.63;;;;;;;;;;6312089;28;20043;-81
2021/12/26 01:18:14;;;;;;;7.28;3.85;;;;;;;;;;6299219;28;20098;-82
2021/12/26 01:21:22;;;;;;;8.47;4.30;;;;;;;;;;6294054;28;20670;-82
2021/12/26 01:24:27;;;;;;;8.25;3.75;;;;;;;;;;6291694;28;20537;-81
2021/12/26 01:27:29;;;;;;;7.53;3.42;;;;;;;;;;6287404;28;20421;-81
2021/12/26 01:30:31;;;;;;;5.88;3.55;;;;;;;;;;6289805;28;20043;-81
2021/12/26 01:33:34;;;;;;;;;;;;;;;;;;6287477;28;20060;-81
2021/12/26 01:36:55;;;;;;;8.43;3.92;;;;;;;;;;6277078;28;19920;-81
2021/12/26 01:40:12;;;;;;;8.95;4.10;;;;;;;;;;6299101;28;20062;-80
2021/12/26 01:43:30;;;;;;;10.00;3.85;;;;;;;;;;6294502;28;20069;-81
2021/12/26 01:46:41;;;;;;;9.45;3.83;;;;;;;;;;6284122;28;20051;-81
2021/12/26 01:49:43;;;;;;;8.48;4.07;;;;;;;;;;6282525;28;20048;-80
2021/12/26 01:52:45;;;;;;;7.88;4.03;;;;;;;;;;6280880;28;20055;-81
2021/12/26 01:55:47;;;;;;;8.57;3.58;;;;;;;;;;6294424;28;20438;-81
2021/12/26 01:58:52;;;;;;;7.15;4.07;;;;;;;;;;6295201;28;20032;-81
2021/12/26 02:02:12;;;;;;;7.70;3.90;;;;;;;;;;6276920;28;20051;-82
2021/12/26 02:05:15;;;;;;;7.88;3.63;;;;;;;;;;6270467;28;20440;-81
2021/12/26 02:08:18;;;;;;;6.82;3.70;;;;;;;;;;6287799;28;20048;-80
2021/12/26 02:11:21;;;;;;;8.85;3.80;;;;;;;;;;6277780;28;20040;-81
2021/12/26 02:14:23;;;;;;;9.60;3.75;;;;;;;;;;6283069;28;20108;-82
2021/12/26 02:17:44;;;;;;;6.78;3.80;;;;;;;;;;6312561;28;20044;-80
2021/12/26 02:24:04;;;;;;;7.53;3.40;;;;;;;;;;6291572;28;20040;-81
2021/12/26 02:30:26;;;;;;;11.15;3.85;;;;;;;;;;6284179;28;20073;-81
2021/12/26 02:33:27;;;;;;;7.43;3.78;;;;;;;;;;6288864;28;20125;-81
2021/12/26 02:36:29;;;;;;;8.20;4.25;;;;;;;;;;6313515;28;20079;-81
2021/12/26 02:39:32;;;;;;;7.80;4.20;;;;;;;;;;6286539;28;20104;-81
2021/12/26 02:42:34;;;;;;;;;;;;;;;;;;6297806;28;20048;-82
2021/12/26 02:45:36;;;;;;;7.15;4.13;;;;;;;;;;6306774;28;19939;-82
2021/12/26 02:48:40;;;;;;;8.70;4.18;;;;;;;;;;6279330;28;20049;-82
2021/12/26 02:51:43;;;;;;;8.65;4.15;;;;;;;;;;6274138;28;20506;-81
2021/12/26 02:54:44;;;;;;;8.20;4.13;;;;;;;;;;6311535;28;20060;-81
2021/12/26 02:57:48;;;;;;;7.75;4.05;;;;;;;;;;6272492;28;20048;-81
2021/12/26 03:00:51;;;;;;;;;;;;;;;;;;6278646;28;20102;-81
2021/12/26 03:03:53;;;;;;;8.32;4.00;;;;;;;;;;6293292;28;19952;-82
2021/12/26 03:07:02;;;;;;;8.88;4.00;;;;;;;;;;6289792;28;20074;-82
2021/12/26 03:10:05;;;;;;;9.40;4.53;;;;;;;;;;6291615;28;20448;-81
2021/12/26 03:13:09;;;;;;;11.07;4.03;;;;;;;;;;6279445;28;20205;-81
2021/12/26 03:16:10;;;;;;;9.23;4.45;;;;;;;;;;6277394;28;20135;-82
2021/12/26 03:19:12;;;;;;;7.30;4.00;;;;;;;;;;6292488;28;20055;-80
2021/12/26 03:22:15;;;;;;;8.50;4.22;;;;;;;;;;6294640;28;20044;-81
2021/12/26 03:25:20;;;;;;;8.35;4.25;;;;;;;;;;6313395;28;20040;-82
2021/12/26 03:28:23;;;;;;;6.90;3.72;;;;;;;;;;6296599;28;20036;-81
2021/12/26 03:31:25;;;;;;;7.97;4.13;;;;;;;;;;6295594;28;20125;-81
2021/12/26 03:34:27;;;;;;;8.65;4.30;;;;;;;;;;6313281;28;20044;-80
2021/12/26 03:37:28;;;;;;;8.32;4.10;;;;;;;;;;6297461;28;20043;-81
2021/12/26 03:40:33;;;;;;;9.95;3.80;;;;;;;;;;6295168;28;20043;-79
2021/12/26 03:43:34;;;;;;;9.55;4.18;;;;;;;;;;6277653;28;20047;-82
2021/12/26 03:46:37;;;;;;;9.25;4.05;;;;;;;;;;6294216;28;20058;-81
2021/12/26 03:49:39;;;;;;;9.65;3.88;;;;;;;;;;6271877;28;20059;-82
2021/12/26 03:52:41;;;;;;;10.07;4.22;;;;;;;;;;6311944;28;20131;-82
2021/12/26 03:55:43;;;;;;;11.32;4.80;;;;;;;;;;6292791;28;20036;-82
2021/12/26 03:58:46;;;;;;;10.55;4.60;;;;;;;;;;6272127;28;20072;-82
2021/12/26 04:01:48;;;;;;;8.02;3.88;;;;;;;;;;6281719;28;20889;-82
2021/12/26 04:04:51;;;;;;;8.70;3.78;;;;;;;;;;6309707;28;20125;-83
2021/12/26 04:07:52;;;;;;;8.48;4.65;;;;;;;;;;6278135;28;20048;-81
2021/12/26 04:10:55;;;;;;;9.68;4.65;;;;;;;;;;6295327;28;20051;-82
2021/12/26 04:13:57;;;;;;;10.68;4.30;;;;;;;;;;6294118;28;20048;-81
2021/12/26 04:17:01;;;;;;;8.82;4.18;;;;;;;;;;6279382;28;20060;-80
2021/12/26 04:20:05;;;;;;;9.95;4.38;;;;;;;;;;6294927;28;20052;-81
2021/12/26 04:23:06;;;;;;;8.13;3.95;;;;;;;;;;6294415;28;20040;-81
2021/12/26 04:26:08;;;;;;;7.97;4.25;;;;;;;;;;6294023;28;20102;-81
2021/12/26 04:29:10;;;;;;;8.95;4.50;;;;;;;;;;6274344;28;20304;-82
2021/12/26 04:32:12;;;;;;;8.27;4.20;;;;;;;;;;6305339;28;20055;-82
2021/12/26 04:35:14;;;;;;;7.47;3.83;;;;;;;;;;6296278;28;20051;-82
2021/12/26 04:38:16;;;;;;;7.25;3.67;;;;;;;;;;6308226;28;20133;-81
2021/12/26 04:41:18;;;;;;;9.48;4.68;;;;;;;;;;6287574;28;20040;-81
2021/12/26 04:44:42;;;;;;;9.30;3.88;;;;;;;;;;6265892;28;20036;-80
2021/12/26 04:48:16;;;;;;;11.65;4.13;;;;;;;;;;6272053;28;20048;-81
2021/12/26 04:51:18;;;;;;;8.15;4.03;;;;;;;;;;6270575;28;20036;-81
2021/12/26 04:54:26;;;;;;;9.90;4.30;;;;;;;;;;6279617;28;20055;-80
2021/12/26 04:57:28;;;;;;;9.60;4.40;;;;;;;;;;6295475;28;20170;-78
2021/12/26 05:00:31;;;;;;;9.60;4.55;;;;;;;;;;6287501;28;20929;-81
2021/12/26 05:03:34;;;;;;;8.00;4.40;;;;;;;;;;6312651;28;20523;-80
2021/12/26 05:06:35;;;;;;;9.50;4.30;;;;;;;;;;6288757;28;20451;-80
2021/12/26 05:09:37;;;;;;;9.70;3.90;;;;;;;;;;6286830;28;20123;-80
2021/12/26 05:12:40;;;;;;;9.15;4.25;;;;;;;;;;6284670;28;20051;-79
2021/12/26 05:15:43;;;;;;;;;;;;;;;;;;6285182;28;20046;-81
2021/12/26 05:18:45;;;;;;;10.23;4.30;;;;;;;;;;6292422;28;20037;-79
2021/12/26 05:21:46;;;;;;;11.90;4.93;;;;;;;;;;6295810;28;20093;-81
2021/12/26 05:24:48;;;;;;;9.18;4.53;;;;;;;;;;6295611;28;20044;-81
2021/12/26 05:27:52;;;;;;;10.52;4.18;;;;;;;;;;6295923;28;20177;-81
2021/12/26 05:30:55;;;;;;;8.95;4.35;;;;;;;;;;6292807;28;20497;-80
2021/12/26 05:34:03;;;;;;;10.35;4.90;;;;;;;;;;6288849;28;20045;-81
2021/12/26 05:37:05;;;;;;;10.20;4.70;;;;;;;;;;6259039;28;20052;-80
2021/12/26 05:40:09;;;;;;;9.55;4.22;;;;;;;;;;6275595;28;20051;-81
2021/12/26 05:43:13;;;;;;;11.50;4.75;;;;;;;;;;6270874;28;20044;-81
2021/12/26 05:46:16;;;;;;;9.30;4.45;;;;;;;;;;6300164;28;20401;-81
2021/12/26 05:49:18;;;;;;;10.52;4.75;;;;;;;;;;6270056;28;20051;-81
2021/12/26 05:52:33;;;;;;;10.32;4.97;;;;;;;;;;6279306;28;20040;-80
2021/12/26 05:55:43;;;;;;;10.73;4.35;;;;;;;;;;6281066;28;20706;-81
2021/12/26 05:58:44;;;;;;;8.95;4.22;;;;;;;;;;6271967;28;20071;-79
2021/12/26 06:01:46;;;;;;;8.30;4.40;;;;;;;;;;6279589;28;20046;-78
2021/12/26 06:04:48;;;;;;;9.73;4.57;;;;;;;;;;6297988;28;20790;-79
2021/12/26 06:07:49;;;;;;;9.82;4.72;;;;;;;;;;6288731;28;20051;-80
2021/12/26 06:10:51;;;;;;;8.15;4.10;;;;;;;;;;6276005;28;20052;-81
2021/12/26 06:13:53;;;;;;;8.23;4.47;;;;;;;;;;6282167;28;20616;-80
2021/12/26 06:16:55;;;;;;;8.57;4.53;;;;;;;;;;6266585;28;20048;-81
2021/12/26 06:20:16;;;;;;;7.65;4.70;;;;;;;;;;6283353;28;20036;-81
2021/12/26 06:23:28;;;;;;;12.63;4.38;;;;;;;;;;6276975;28;20745;-80
2021/12/26 06:26:50;;;;;;;11.18;5.05;;;;;;;;;;6305586;28;21370;-79
2021/12/26 06:30:12;;;;;;;11.48;4.93;;;;;;;;;;6298093;28;20044;-79
2021/12/26 06:33:43;;;;;;;9.88;4.43;;;;;;;;;;6294552;28;20039;-81
2021/12/26 06:37:04;;;;;;;9.23;4.93;;;;;;;;;;6302701;28;20692;-79
2021/12/26 06:40:24;;;;;;;9.15;4.28;;;;;;;;;;6309069;28;20049;-79
2021/12/26 06:43:45;;;;;;;10.65;5.18;;;;;;;;;;6245330;28;20053;-82
2021/12/26 06:47:06;;;;;;;10.02;4.97;;;;;;;;;;6292604;28;20070;-82
2021/12/26 06:50:12;;;;;;;11.85;5.60;;;;;;;;;;6274628;28;20044;-82
2021/12/26 06:53:14;;;;;;;11.63;5.20;;;;;;;;;;6276352;28;20044;-81
2021/12/26 06:56:16;;;;;;;12.63;5.55;;;;;;;;;;6289780;28;20386;-81
2021/12/26 06:59:18;;;;;;;12.63;5.20;;;;;;;;;;6317127;28;20051;-81
2021/12/26 07:02:20;;;;;;;9.60;5.00;;;;;;;;;;6299222;28;20048;-80
2021/12/26 07:05:27;;;;;;;9.30;4.95;;;;;;;;;;6299672;28;20043;-83
2021/12/26 07:08:35;;;;;;;10.95;4.60;;;;;;;;;;6299015;28;20040;-80
2021/12/26 07:11:37;;;;;;;12.73;5.95;;;;;;;;;;6300424;28;20055;-82
2021/12/26 07:14:46;;;;;;;13.30;5.45;;;;;;;;;;6315220;28;20044;-79
2021/12/26 07:17:48;;;;;;;15.48;7.03;;;;;;;;;;6280913;28;20492;-83
2021/12/26 07:20:49;;;;;;;13.82;5.80;;;;;;;;;;6300412;28;20040;-81
2021/12/26 07:24:12;;;;;;;14.20;7.22;;;;;;;;;;6302790;28;20456;-82
2021/12/26 07:27:15;;;;;;;15.20;7.10;;;;;;;;;;6301865;28;20047;-84
2021/12/26 07:30:35;;;;;;;54.65;25.42;;;;;;;;;;6300888;28;20036;-79
2021/12/26 07:33:36;;;;;;;64.53;21.98;;;;;;;;;;6281055;28;20040;-80
2021/12/26 07:36:38;;;;;;;21.83;9.35;;;;;;;;;;6300097;28;20044;-80
2021/12/26 07:39:51;;;;;;;25.92;10.40;;;;;;;;;;6296443;28;20044;-80
2021/12/26 07:42:53;;;;;;;17.40;8.63;;;;;;;;;;6272629;28;20040;-82
2021/12/26 07:46:30;;;;;;;32.40;13.82;;;;;;;;;;6291064;28;20047;-81
2021/12/26 07:49:36;;;;;;;14.57;6.63;;;;;;;;;;6287339;28;20040;-80
2021/12/26 07:53:03;;;;;;;19.63;8.50;;;;;;;;;;6277689;28;20041;-81
2021/12/26 07:56:29;;;;;;;32.47;17.45;;;;;;;;;;6257757;28;20049;-80
2021/12/26 08:00:00;;;;;;;15.82;6.68;;;;;;;;;;6274233;28;20060;-79
2021/12/26 08:03:21;;;;;;;10.20;5.57;;;;;;;;;;6316641;28;20040;-80
2021/12/26 08:06:45;;;;;;;13.02;7.00;;;;;;;;;;6278612;28;20099;-79
2021/12/26 08:09:47;;;;;;;13.68;7.30;;;;;;;;;;6298584;28;20040;-79
2021/12/26 08:12:49;;;;;;;12.57;7.13;;;;;;;;;;6284391;28;20101;-82
2021/12/26 08:15:50;;;;;;;12.98;6.10;;;;;;;;;;6286850;28;20156;-79
2021/12/26 08:18:53;;;;;;;17.52;8.25;;;;;;;;;;6310021;28;20047;-81
2021/12/26 08:21:55;;;;;;;16.65;9.32;;;;;;;;;;6299170;28;20103;-82
2021/12/26 08:24:57;;;;;;;15.82;7.38;;;;;;;;;;6268587;28;20043;-83
2021/12/26 08:27:59;;;;;;;15.85;6.63;;;;;;;;;;6291121;28;20044;-81
2021/12/26 08:31:01;;;;;;;15.55;6.95;;;;;;;;;;6306288;28;20040;-83
2021/12/26 08:34:04;;;;;;;13.73;6.75;;;;;;;;;;6298901;28;20104;-81
2021/12/26 08:37:05;;;;;;;17.20;7.75;;;;;;;;;;6282627;28;20454;-82
2021/12/26 08:40:08;;;;;;;10.85;5.18;;;;;;;;;;6305391;28;20048;-83
2021/12/26 08:43:10;;;;;;;14.75;8.18;;;;;;;;;;6316952;28;20048;-82
2021/12/26 08:46:12;;;;;;;18.30;8.80;;;;;;;;;;6296056;28;20061;-80
2021/12/26 08:49:15;;;;;;;19.08;11.20;;;;;;;;;;6272891;28;20082;-81
2021/12/26 08:52:17;;;;;;;15.20;7.40;;;;;;;;;;6271931;28;20040;-82
2021/12/26 08:55:19;;;;;;;15.80;8.30;;;;;;;;;;6277250;28;20050;-80
2021/12/26 08:58:21;;;;;;;17.17;7.68;;;;;;;;;;6306636;28;20033;-83
2021/12/26 09:01:23;;;;;;;13.73;5.90;;;;;;;;;;6291109;28;20187;-82
2021/12/26 09:04:25;;;;;;;15.10;6.45;;;;;;;;;;6271330;28;20044;-81
2021/12/26 09:07:28;;;;;;;55.15;35.38;;;;;;;;;;6275621;28;20051;-82
2021/12/26 09:10:30;;;;;;;;;;;;;;;;;;6289929;28;20051;-82
2021/12/26 09:13:33;;;;;;;17.13;7.90;;;;;;;;;;6272960;28;19921;-81
2021/12/26 09:16:35;;;;;;;13.57;7.50;;;;;;;;;;6295276;28;20048;-81
2021/12/26 09:19:36;;;;;;;13.60;6.88;;;;;;;;;;6291434;28;20055;-82
2021/12/26 09:22:40;;;;;;;12.88;6.18;;;;;;;;;;6279477;28;20054;-79
2021/12/26 09:25:42;;;;;;;14.80;6.88;;;;;;;;;;6259482;28;20284;-81
2021/12/26 09:28:44;;;;;;;18.15;6.50;;;;;;;;;;6278594;28;20450;-83
2021/12/26 09:31:46;;;;;;;15.20;6.80;;;;;;;;;;6276168;28;20454;-81
2021/12/26 09:34:47;;;;;;;17.38;7.07;;;;;;;;;;6316493;28;20044;-81
2021/12/26 09:37:49;;;;;;;12.23;6.53;;;;;;;;;;6283809;28;20076;-82
2021/12/26 09:40:50;;;;;;;13.82;6.53;;;;;;;;;;6295717;28;20051;-82
2021/12/26 09:43:52;;;;;;;13.13;7.13;;;;;;;;;;6295780;28;20641;-82
2021/12/26 09:46:54;;;;;;;14.32;7.35;;;;;;;;;;6297606;28;20050;-82
2021/12/26 09:49:56;;;;;;;15.93;7.30;;;;;;;;;;6300016;28;20108;-81
2021/12/26 09:52:57;;;;;;;16.75;7.38;;;;;;;;;;6312318;28;20047;-83
2021/12/26 09:55:59;;;;;;;12.40;6.43;;;;;;;;;;6290788;28;20058;-82
2021/12/26 09:59:08;;;;;;;16.40;6.47;;;;;;;;;;6310727;28;20056;-81
2021/12/26 10:02:13;;;;;;;15.50;6.10;;;;;;;;;;6293156;28;20697;-79
2021/12/26 10:05:20;;;;;;;14.13;7.85;;;;;;;;;;6313841;28;20455;-81
2021/12/26 10:08:22;;;;;;;13.55;6.85;;;;;;;;;;6295071;28;20122;-84
2021/12/26 10:11:47;;;;;;;16.60;8.05;;;;;;;;;;6293210;28;20066;-83
2021/12/26 10:14:53;;;;;;;17.33;7.78;;;;;;;;;;6289660;28;20052;-83
2021/12/26 10:17:55;;;;;;;14.07;6.93;;;;;;;;;;6309914;28;20051;-82
2021/12/26 10:20:57;;;;;;;15.18;6.72;;;;;;;;;;6297041;28;20181;-82
2021/12/26 10:24:27;;;;;;;15.00;6.40;;;;;;;;;;6313775;28;20573;-83
2021/12/26 10:27:31;;;;;;;11.57;5.45;;;;;;;;;;6313820;28;20121;-82
2021/12/26 10:30:42;;;;;;;14.32;6.57;;;;;;;;;;6294301;28;20124;-82
2021/12/26 10:33:49;;;;;;;17.70;7.75;;;;;;;;;;6281116;28;20039;-81
2021/12/26 10:36:53;;;;;;;15.50;7.15;;;;;;;;;;6294550;28;20043;-83
2021/12/26 10:39:57;;;;;;;;;;;;;;;;;;6275949;28;20086;-82
2021/12/26 10:43:00;;;;;;;15.05;6.57;;;;;;;;;;6276580;28;19921;-82
2021/12/26 10:46:14;;;;;;;;;;;;;;;;;;6269580;28;20103;-82
2021/12/26 10:49:50;;;;;;;16.45;7.50;;;;;;;;;;6296757;28;19928;-82
2021/12/26 10:53:03;;;;;;;41.22;17.25;;;;;;;;;;6277936;28;20040;-82
2021/12/26 10:56:09;;;;;;;55.22;22.98;;;;;;;;;;6282171;28;20052;-82
2021/12/26 10:59:21;;;;;;;45.40;17.48;;;;;;;;;;6280766;28;20052;-82
2021/12/26 11:02:29;;;;;;;19.92;9.13;;;;;;;;;;6283678;28;20055;-84
2021/12/26 11:05:39;;;;;;;72.05;29.33;;;;;;;;;;6299313;28;20053;-84
2021/12/26 11:08:46;;;;;;;101.40;37.80;;;;;;;;;;6277279;28;20098;-82
2021/12/26 11:12:05;;;;;;;19.73;9.45;;;;;;;;;;6310932;28;20050;-81
2021/12/26 11:15:09;;;;;;;31.88;14.15;;;;;;;;;;6295294;28;20056;-83
2021/12/26 11:18:14;;;;;;;54.28;21.30;;;;;;;;;;6282511;28;20443;-83
2021/12/26 11:21:15;;;;;;;56.53;20.20;;;;;;;;;;6298656;28;20691;-81
2021/12/26 11:24:17;;;;;;;32.70;13.55;;;;;;;;;;6298943;28;20043;-80
2021/12/26 11:27:20;;;;;;;27.52;11.98;;;;;;;;;;6281902;28;20081;-82
2021/12/26 11:30:22;;;;;;;78.93;30.65;;;;;;;;;;6283400;28;20037;-83
2021/12/26 11:33:24;;;;;;;65.50;25.98;;;;;;;;;;6285592;28;20051;-83
2021/12/26 11:36:29;;;;;;;27.80;11.52;;;;;;;;;;6254897;28;20823;-82
2021/12/26 11:39:51;;;;;;;20.85;9.77;;;;;;;;;;6266500;28;20049;-83
2021/12/26 11:43:48;;;;;;;22.50;9.32;;;;;;;;;;6271226;28;20040;-82
2021/12/26 11:47:41;;;;;;;24.80;10.82;;;;;;;;;;6277068;28;20068;-80
2021/12/26 11:51:37;;;;;;;83.70;28.25;;;;;;;;;;6315083;28;20048;-83
2021/12/26 11:55:34;;;;;;;25.27;11.43;;;;;;;;;;6297609;28;20044;-80
2021/12/26 11:58:52;;;;;;;45.80;15.30;;;;;;;;;;6295542;28;20040;-83
2021/12/26 12:01:54;;;;;;;58.28;19.70;;;;;;;;;;6294391;28;20044;-83
2021/12/26 12:05:07;;;;;;;129.90;37.35;;;;;;;;;;6299379;28;20043;-83
2021/12/26 12:08:11;;;;;;;61.35;19.70;;;;;;;;;;6299621;28;20669;-83
2021/12/26 12:11:13;;;;;;;119.55;36.05;;;;;;;;;;6297922;28;20048;-83
2021/12/26 12:14:15;;;;;;;171.60;41.75;;;;;;;;;;6317721;28;20036;-83
2021/12/26 12:17:26;;;;;;;40.88;16.02;;;;;;;;;;6298549;28;20039;-82
2021/12/26 12:20:28;;;;;;;20.05;9.60;;;;;;;;;;6299057;28;20409;-83
2021/12/26 12:23:29;;;;;;;45.47;18.90;;;;;;;;;;6297234;28;20066;-83
2021/12/26 12:26:49;;;;;;;32.05;12.80;;;;;;;;;;6292149;28;20103;-83
2021/12/26 12:29:52;;;;;;;25.35;10.88;;;;;;;;;;6276881;28;20064;-81
2021/12/26 12:33:38;;;;;;;21.13;9.25;;;;;;;;;;6273069;28;20121;-82
2021/12/26 12:36:43;;;;;;;28.33;13.35;;;;;;;;;;6270805;28;20059;-82
2021/12/26 12:40:28;;;;;;;21.83;9.95;;;;;;;;;;6297862;28;20054;-83
2021/12/26 12:43:41;;;;;;;21.58;8.90;;;;;;;;;;6315444;28;20040;-81
2021/12/26 12:46:56;;;;;;;27.55;12.43;;;;;;;;;;6296381;28;20044;-81
2021/12/26 12:50:02;;;;;;;21.95;11.02;;;;;;;;;;6289443;28;20041;-84
2021/12/26 12:53:04;;;;;;;22.58;11.85;;;;;;;;;;6273840;28;20058;-82
2021/12/26 12:56:08;;;;;;;22.10;10.10;;;;;;;;;;6284423;28;20492;-83
2021/12/26 12:59:12;;;;;;;22.50;9.70;;;;;;;;;;6296088;28;20040;-82
2021/12/26 13:02:30;;;;;;;18.70;10.02;;;;;;;;;;6280443;28;20084;-83
2021/12/26 13:05:34;;;;;;;21.13;9.85;;;;;;;;;;6298783;28;20043;-80
2021/12/26 13:08:36;;;;;;;19.40;9.73;;;;;;;;;;6315121;28;20649;-81
2021/12/26 13:11:37;;;;;;;21.90;9.82;;;;;;;;;;6298404;28;20507;-81
2021/12/26 13:14:43;;;;;;;23.02;10.25;;;;;;;;;;6296739;28;20035;-83
2021/12/26 13:17:47;;;;;;;25.25;10.63;;;;;;;;;;6316001;28;20059;-83
2021/12/26 13:20:51;;;;;;;21.55;10.07;;;;;;;;;;6280417;28;20127;-83
2021/12/26 13:23:53;;;;;;;21.73;9.50;;;;;;;;;;6290617;28;20036;-82
2021/12/26 13:26:54;;;;;;;24.20;9.43;;;;;;;;;;6255607;28;20040;-83
2021/12/26 13:29:56;;;;;;;20.42;9.40;;;;;;;;;;6258395;28;20123;-83
2021/12/26 13:32:57;;;;;;;21.25;9.77;;;;;;;;;;6298543;28;20087;-81
2021/12/26 13:36:00;;;;;;;21.75;10.68;;;;;;;;;;6271988;28;20072;-80
2021/12/26 13:39:05;;;;;;;21.73;9.45;;;;;;;;;;6257603;28;20037;-83
2021/12/26 13:42:09;;;;;;;25.02;11.30;;;;;;;;;;6295642;28;20127;-83
2021/12/26 13:45:11;;;;;;;23.05;9.95;;;;;;;;;;6312904;28;20511;-83
2021/12/26 13:48:26;;;;;;;23.75;11.13;;;;;;;;;;6290756;28;20127;-82
2021/12/26 13:51:41;;;;;;;;;;;;;;;;;;6273276;28;20041;-81
2021/12/26 13:54:50;;;;;;;26.98;12.07;;;;;;;;;;6282149;28;20506;-83
2021/12/26 13:58:05;;;;;;;24.40;9.88;;;;;;;;;;6268757;28;20044;-84
2021/12/26 14:01:09;;;;;;;21.40;9.02;;;;;;;;;;6282889;28;20099;-83
2021/12/26 14:04:11;;;;;;;28.33;11.77;;;;;;;;;;6313408;28;20147;-80
2021/12/26 14:07:20;;;;;;;188.27;63.50;;;;;;;;;;6296545;28;20098;-82
2021/12/26 14:10:23;;;;;;;96.47;35.78;;;;;;;;;;6268803;28;20552;-81
2021/12/26 14:13:25;;;;;;;60.50;27.88;;;;;;;;;;6298165;28;20050;-83
2021/12/26 14:16:30;;;;;;;53.65;25.73;;;;;;;;;;6309943;28;20189;-83
2021/12/26 14:19:31;;;;;;;39.33;20.23;;;;;;;;;;6296865;28;20600;-82
2021/12/26 14:22:33;;;;;;;54.60;30.63;;;;;;;;;;6287131;28;20058;-83
2021/12/26 14:25:35;;;;;;;32.08;15.70;;;;;;;;;;6297677;28;20177;-81
2021/12/26 14:29:00;;;;;;;29.08;12.60;;;;;;;;;;6276647;28;20108;-83
2021/12/26 14:32:06;;;;;;;26.55;11.95;;;;;;;;;;6287402;28;20143;-83
2021/12/26 14:35:13;;;;;;;33.25;13.98;;;;;;;;;;6301090;28;20051;-83
2021/12/26 14:38:17;;;;;;;29.33;12.98;;;;;;;;;;6316045;28;20129;-83
2021/12/26 14:41:19;;;;;;;28.02;11.93;;;;;;;;;;6259596;28;20501;-82
2021/12/26 14:44:22;;;;;;;46.55;22.48;;;;;;;;;;6278278;28;20059;-83
2021/12/26 14:47:27;;;;;;;52.47;29.92;;;;;;;;;;6300624;28;20040;-80
2021/12/26 14:50:30;;;;;;;25.38;11.80;;;;;;;;;;6300630;28;20491;-81
2021/12/26 14:53:32;;;;;;;27.50;11.30;;;;;;;;;;6301390;28;20109;-81
2021/12/26 14:56:51;;;;;;;31.15;12.57;;;;;;;;;;6284336;28;20542;-83
2021/12/26 14:59:56;;;;;;;41.55;18.42;;;;;;;;;;6278920;28;20116;-82
2021/12/26 15:02:58;;;;;;;30.38;13.88;;;;;;;;;;6288677;28;20037;-80
2021/12/26 15:06:10;;;;;;;46.20;18.80;;;;;;;;;;6292728;28;20041;-82
2021/12/26 15:09:48;;;;;;;35.70;15.45;;;;;;;;;;6287709;28;20048;-82
2021/12/26 15:12:55;;;;;;;35.00;13.50;;;;;;;;;;6225867;28;20045;-80
2021/12/26 15:15:56;;;;;;;26.77;11.90;;;;;;;;;;6299882;28;20517;-82
2021/12/26 15:18:58;;;;;;;29.73;12.77;;;;;;;;;;6283360;28;20039;-82
2021/12/26 15:22:02;;;;;;;31.85;14.00;;;;;;;;;;6299423;28;20048;-81
2021/12/26 15:25:04;;;;;;;24.75;11.70;;;;;;;;;;6281252;28;20738;-81
2021/12/26 15:28:30;;;;;;;29.55;12.30;;;;;;;;;;6301457;28;20055;-82
2021/12/26 15:31:37;;;;;;;28.17;12.15;;;;;;;;;;6316365;28;20115;-81
2021/12/26 15:34:41;;;;;;;29.58;11.52;;;;;;;;;;6319024;28;20504;-80
2021/12/26 15:37:42;;;;;;;28.63;10.93;;;;;;;;;;6299853;28;20040;-81
2021/12/26 15:40:44;;;;;;;28.75;11.63;;;;;;;;;;6315882;28;20408;-80
2021/12/26 15:43:46;;;;;;;27.80;11.73;;;;;;;;;;6294737;28;20506;-81
2021/12/26 15:46:48;;;;;;;29.83;11.63;;;;;;;;;;6294712;28;20063;-80
2021/12/26 15:49:50;;;;;;;27.75;11.13;;;;;;;;;;6297516;28;20032;-81
2021/12/26 15:52:53;;;;;;;27.90;10.52;;;;;;;;;;6292295;28;20048;-80
2021/12/26 15:55:55;;;;;;;28.23;11.10;;;;;;;;;;6278459;28;20126;-82
2021/12/26 15:58:57;;;;;;;31.75;12.60;;;;;;;;;;6299866;28;20108;-80
2021/12/26 16:01:58;;;;;;;30.70;11.35;;;;;;;;;;6281682;28;20052;-81
2021/12/26 16:05:00;;;;;;;32.17;11.82;;;;;;;;;;6253630;28;20048;-79
2021/12/26 16:08:02;;;;;;;27.45;12.40;;;;;;;;;;6292581;28;20040;-81
2021/12/26 16:11:04;;;;;;;30.35;13.05;;;;;;;;;;6273789;28;20048;-82
2021/12/26 16:14:06;;;;;;;25.67;12.13;;;;;;;;;;6286246;28;20048;-81
2021/12/26 16:17:07;;;;;;;27.00;12.13;;;;;;;;;;6286052;28;20051;-79
2021/12/26 16:20:12;;;;;;;299.48;92.00;;;;;;;;;;6290059;28;20036;-82
2021/12/26 16:23:14;;;;;;;188.23;61.80;;;;;;;;;;6297031;28;20082;-79
2021/12/26 16:26:15;;;;;;;52.15;22.40;;;;;;;;;;6314276;28;20040;-82
2021/12/26 16:29:17;;;;;;;41.03;17.83;;;;;;;;;;6295104;28;20054;-82
2021/12/26 16:32:19;;;;;;;49.90;23.30;;;;;;;;;;6297194;28;20557;-80
2021/12/26 16:35:22;;;;;;;41.65;21.13;;;;;;;;;;6281040;28;20090;-79
2021/12/26 16:38:43;;;;;;;52.67;28.80;;;;;;;;;;6315468;28;20044;-78
2021/12/26 16:41:45;;;;;;;28.70;12.65;;;;;;;;;;6296097;28;20054;-80
2021/12/26 16:44:47;;;;;;;26.50;12.90;;;;;;;;;;6277036;28;20050;-81
2021/12/26 16:47:49;;;;;;;59.05;33.30;;;;;;;;;;6278472;28;20545;-80
2021/12/26 16:50:51;;;;;;;25.90;12.57;;;;;;;;;;6300640;28;20151;-78
2021/12/26 16:53:53;;;;;;;31.33;15.07;;;;;;;;;;6286383;28;20554;-81
2021/12/26 16:56:55;;;;;;;28.38;12.30;;;;;;;;;;6304045;28;20055;-79
2021/12/26 17:00:01;;;;;;;25.20;11.83;;;;;;;;;;6283581;28;20044;-80
2021/12/26 17:03:03;;;;;;;28.50;12.15;;;;;;;;;;6292981;28;20502;-81
2021/12/26 17:06:04;;;;;;;32.53;13.27;;;;;;;;;;6300152;28;20412;-80
2021/12/26 17:09:06;;;;;;;25.95;10.77;;;;;;;;;;6296088;28;20044;-80
2021/12/26 17:12:08;;;;;;;27.05;11.60;;;;;;;;;;6280927;28;20066;-82
2021/12/26 17:15:10;;;;;;;31.25;11.98;;;;;;;;;;6288133;28;20048;-80
2021/12/26 17:18:12;;;;;;;30.70;12.73;;;;;;;;;;6296786;28;20044;-82
2021/12/26 17:21:14;;;;;;;37.40;15.35;;;;;;;;;;6293381;28;20068;-82
2021/12/26 17:24:16;;;;;;;36.03;14.05;;;;;;;;;;6311257;28;20047;-80
2021/12/26 17:27:26;;;;;;;27.63;11.60;;;;;;;;;;6295537;28;20055;-80
2021/12/26 17:30:27;;;;;;;27.08;11.50;;;;;;;;;;6283540;28;20133;-79
2021/12/26 17:33:33;;;;;;;25.05;11.73;;;;;;;;;;6270847;28;20155;-81
2021/12/26 17:36:35;;;;;;;33.33;13.52;;;;;;;;;;6270484;28;20041;-82
2021/12/26 17:39:38;;;;;;;29.00;12.32;;;;;;;;;;6297404;28;20058;-79
2021/12/26 17:42:39;;;;;;;34.70;13.90;;;;;;;;;;6287560;28;20504;-81
2021/12/26 17:45:44;;;;;;;28.50;11.27;;;;;;;;;;6272192;28;20047;-81
2021/12/26 17:48:47;;;;;;;22.80;9.95;;;;;;;;;;6290428;28;20046;-79
2021/12/26 17:51:50;;;;;;;24.95;11.27;;;;;;;;;;6278812;28;20056;-80
2021/12/26 17:54:51;;;;;;;29.67;12.02;;;;;;;;;;6291788;28;20434;-82
2021/12/26 17:57:53;;;;;;;26.80;11.60;;;;;;;;;;6320630;28;20754;-80
2021/12/26 18:01:02;;;;;;;22.33;10.13;;;;;;;;;;6307953;28;20037;-82
2021/12/26 18:04:06;;;;;;;26.80;10.65;;;;;;;;;;6273307;28;20125;-82
2021/12/26 18:07:08;;;;;;;27.10;11.32;;;;;;;;;;6277493;28;20055;-82
2021/12/26 18:10:11;;;;;;;27.25;10.95;;;;;;;;;;6288785;28;20131;-82
2021/12/26 18:13:13;;;;;;;;;;;;;;;;;;6319067;28;20135;-81
2021/12/26 18:16:14;;;;;;;24.33;10.63;;;;;;;;;;6281367;28;19966;-80
2021/12/26 18:19:16;;;;;;;30.13;12.02;;;;;;;;;;6293736;28;20182;-79
2021/12/26 18:22:18;;;;;;;29.02;11.00;;;;;;;;;;6278757;28;20414;-82
2021/12/26 18:25:20;;;;;;;28.60;12.50;;;;;;;;;;6298864;28;20048;-81
2021/12/26 18:28:22;;;;;;;44.63;18.97;;;;;;;;;;6272703;28;20040;-80